x

South Hecate Strait (46185) Wave Buoy

1:00am - Sat 31st Jan 2015 All times are PST. -8 hours from GMT.

  • Sig Wave height 3.9ft
  • Peak Period 8s
  • Wind
    9mph, 13mph gusts
  • Sea Temp 49°f
  • Air Temp 44°f
  • Sea Pressure 1025.4mb
  • South Hecate Strait
  • South Hecate Strait

More Historic Weather Station data

Upgrade to MSW Pro to gain access to the past 30 days of data for over 8000 Wavebouys and Weather Stations around the globe.

Join Pro

Comparision Forecast

View Surf forecast
   
Sat 01/31 1:00am 4ft 8s 9 13 mph 1025.4mb 49f 44f
12:00am 4.5ft 7s 11 16 mph 1025.5mb 49f 44f
Fri 01/30 11:00pm 4.5ft 7s 13 18 mph 1026mb 49f 45f
10:00pm 4.5ft 7s 13 16 mph 1025.5mb 49f 45f
9:00pm 5ft 7s 9 13 mph 1025.8mb 49f 45f
8:00pm 5ft 7s 13 18 mph 1025.4mb 49f 46f
7:00pm 5.5ft 8s 16 18 mph 1025.2mb 49f 45f
6:00pm 6ft 7s 13 16 mph 1025.7mb 49f 45f
5:00pm 6ft 6s 16 18 mph 1025.1mb 49f 46f
4:00pm 6ft 6s 13 18 mph 1024.7mb 49f 46f
3:00pm 6ft 6s 18 25 mph 1024.1mb 49f 47f
2:00pm 7ft 6s 18 22 mph 1023.3mb 49f 47f
1:00pm 7ft 7s 18 22 mph 1022.7mb 49f 46f
12:00pm 6.5ft 7s 18 25 mph 1022.5mb 49f 47f
11:00am 7ft 7s 20 25 mph 1022.2mb 49f 47f
10:00am 7ft 8s 20 25 mph 1020.5mb 49f 47f
9:00am 7ft 8s 18 22 mph 1019.3mb 49f 47f
8:00am 8.5ft 7s 18 22 mph 1018.4mb 49f 47f
7:00am 9.5ft 7s 20 25 mph 1017.6mb 49f 50f
6:00am 9.5ft 7s 22 27 mph 1017.7mb 49f 50f
5:00am  -   -  25
mph
- - -
4:00am 8.5ft 7s 25 31 mph 1018.3mb 49f 50f
3:00am 8ft 7s 27 31 mph 1018.7mb 49f 49f
2:00am 8ft 6s 25 29 mph 1019.5mb 49f 49f
1:00am 7ft 7s 22 27 mph 1019.9mb 49f 49f
12:00am 8ft 8s 22 27 mph 1020.7mb 49f 49f
Thu 01/29 11:00pm 8ft 7s 25 29 mph 1020.8mb 49f 49f
10:00pm 7.5ft 8s 22 27 mph 1021.2mb 49f 49f
9:00pm 7.5ft 10s 18 22 mph 1021.7mb 49f 48f
8:00pm 7ft 9s 18 25 mph 1022.4mb 49f 49f
7:00pm 7ft 10s 16 20 mph 1022.7mb 49f 49f
6:00pm 7.5ft 10s 18 20 mph 1023.3mb 49f 49f
5:00pm 8ft 10s 16 20 mph 1023.4mb 49f 48f
4:00pm 8ft 11s 20 22 mph 1023.7mb 49f 49f
3:00pm 8ft 7s 20 25 mph 1024mb 49f 48f
2:00pm 8ft 9s 20 25 mph 1024.2mb 49f 48f
1:00pm 8.5ft 9s 20 25 mph 1024.4mb 49f 48f
12:00pm 8ft 7s 22 27 mph 1024.4mb 49f 47f
11:00am 8.5ft 7s 22 27 mph 1024.8mb 49f 47f
10:00am 9ft 6s 25 29 mph 1024.3mb 49f 47f
9:00am 8.5ft 7s 27 31 mph 1023.9mb 49f 47f
8:00am 8ft 7s 25 31 mph 1023.8mb 49f 47f
7:00am 8ft 8s 22 27 mph 1023.9mb 49f 47f
6:00am 8.5ft 11s 22 27 mph 1024.3mb 49f 48f
5:00am 9ft 11s 22 29 mph 1024.4mb 49f 48f
4:00am 8.5ft 7s 25 31 mph 1024.8mb 49f 48f
3:00am 8.5ft 7s 25 31 mph 1025.1mb 49f 47f
2:00am 8ft 7s 22 29 mph 1024.9mb 49f 48f
1:00am 8ft 7s 25 31 mph 1024.8mb 49f 48f
12:00am 8ft 7s 25 31 mph 1025mb 49f 49f
Wed 01/28 11:00pm 7.5ft 7s 25 29 mph 1025mb 49f 49f
10:00pm 8ft 7s 25 31 mph 1024.8mb 49f 49f
9:00pm 8ft 7s 25 29 mph 1024.7mb 49f 49f
8:00pm 8ft 6s 25 29 mph 1024.4mb 49f 49f
7:00pm 8ft 6s 27 31 mph 1024.2mb 49f 49f
6:00pm 8ft 6s 25 29 mph 1024.4mb 49f 48f
5:00pm 7.5ft 6s 25 29 mph 1024.5mb 49f 48f
4:00pm 8ft 6s 25 29 mph 1024.5mb 49f 49f
3:00pm 8ft 6s 25 29 mph 1024.6mb 48f 48f
2:00pm 7ft 6s 27 34 mph 1024.5mb 48f 48f
1:00pm 7.5ft 6s 25 31 mph 1025.1mb 48f 47f
12:00pm 6.5ft 6s 25 31 mph 1025.3mb 48f 47f
11:00am 6.5ft 6s 25 31 mph 1025.5mb 48f 47f
10:00am 6ft 5s 25 29 mph 1025.3mb 48f 47f
9:00am 6ft 5s 25 29 mph 1025mb 48f 47f
8:00am 5ft 5s 25 27 mph 1024.7mb 48f 48f
7:00am 4.5ft 5s 22 27 mph 1024.6mb 48f 48f
6:00am 4.5ft 4s 20 25 mph 1024.6mb 48f 48f
5:00am 4ft 9s 20 25 mph 1024.5mb 48f 48f
4:00am 4ft 9s 18 25 mph 1024.4mb 48f 48f
3:00am 3.5ft 8s 20 22 mph 1024.4mb 48f 47f
2:00am 3.5ft 9s 16 18 mph 1024.2mb 48f 47f
1:00am 3.5ft 9s 16 18 mph 1024.1mb 48f 47f
12:00am 3.5ft 9s 16 20 mph 1024.1mb 48f 47f
Tue 01/27 11:00pm 3.5ft 10s 13 16 mph 1023.8mb 48f 47f
10:00pm 3.5ft 8s 9 13 mph 1023.2mb 48f 47f
9:00pm 3.5ft 8s 9 11 mph 1023.2mb 48f 47f
8:00pm 3.5ft 10s 7 9 mph 1022.5mb 48f 46f
7:00pm 4ft 8s 9 11 mph 1022.3mb 49f 46f
6:00pm 4.5ft 9s 4 7 mph 1021.6mb 49f 46f
5:00pm 4.5ft 9s 7 9 mph 1021.1mb 49f 46f
4:00pm 4.5ft 8s 9 13 mph 1020.7mb 49f 46f
3:00pm 5ft 6s 7 9 mph 1020.4mb 49f 47f
2:00pm 5ft 9s 11 13 mph 1019.9mb 49f 46f
1:00pm 5ft 10s 13 18 mph 1019.4mb 49f 46f
12:00pm 5.5ft 8s 13 18 mph 1018.7mb 49f 46f
11:00am 5.5ft 8s 13 18 mph 1017.9mb 49f 46f